Matsumoto/Nagano, Japan
Current Conditions -  °F | °C
As of 4:00 PM on Tuesday 21 Oct 2014 (Local Time) from RJNT Reporting Station
Broken Clouds Broken Clouds  
Wind Chill: 72°   Ceiling: 5000
Heat Index: 72°   Visibility: 6mi
Dew Point: 57°   Wind: 8mph
Humidity: 60%   Direction: 170°S
Pressure: 29.88"   Gusts: NA
Location:  36.25°N, 137.97°E
Report Text: RJNT 210700Z 17007KT 130V220 9999 FEW030 BKN050 BKN070 22/14 Q1012
Loading
Personal Weather Stations






























Interactive Weather Map
Tropical Storm Tracking
New forecast layout! Learn more

10-Day Weather Forecast

Advertisements
Track Severe Weather on mobile